sensor_id;sensor_type;location;lat;lon;timestamp;P1;durP1;ratioP1;P2;durP2;ratioP2
74945;SDS011;63509;45.250;38.102;2023-01-29T00:02:18;24.67;;;11.23;;
74945;SDS011;63509;45.250;38.102;2023-01-29T00:04:44;26.63;;;10.55;;
74945;SDS011;63509;45.250;38.102;2023-01-29T00:07:10;25.75;;;10.40;;
74945;SDS011;63509;45.250;38.102;2023-01-29T00:09:36;24.30;;;12.68;;
74945;SDS011;63509;45.250;38.102;2023-01-29T00:12:02;21.85;;;11.70;;
74945;SDS011;63509;45.250;38.102;2023-01-29T00:14:29;24.55;;;11.32;;
74945;SDS011;63509;45.250;38.102;2023-01-29T00:16:55;19.77;;;10.50;;
74945;SDS011;63509;45.250;38.102;2023-01-29T00:19:21;18.45;;;9.70;;
74945;SDS011;63509;45.250;38.102;2023-01-29T00:21:47;26.33;;;12.48;;
74945;SDS011;63509;45.250;38.102;2023-01-29T00:24:13;22.85;;;12.30;;
74945;SDS011;63509;45.250;38.102;2023-01-29T00:26:39;27.08;;;11.70;;
74945;SDS011;63509;45.250;38.102;2023-01-29T00:29:06;22.60;;;11.10;;
74945;SDS011;63509;45.250;38.102;2023-01-29T00:31:32;20.63;;;11.02;;
74945;SDS011;63509;45.250;38.102;2023-01-29T00:33:59;19.30;;;10.93;;
74945;SDS011;63509;45.250;38.102;2023-01-29T00:36:25;21.45;;;12.13;;
74945;SDS011;63509;45.250;38.102;2023-01-29T00:38:55;23.85;;;11.25;;
74945;SDS011;63509;45.250;38.102;2023-01-29T00:41:28;26.63;;;11.55;;
74945;SDS011;63509;45.250;38.102;2023-01-29T00:44:14;22.55;;;11.98;;
74945;SDS011;63509;45.250;38.102;2023-01-29T00:46:59;25.65;;;11.25;;
74945;SDS011;63509;45.250;38.102;2023-01-29T00:49:26;31.50;;;13.80;;
74945;SDS011;63509;45.250;38.102;2023-01-29T00:51:52;32.55;;;13.70;;
74945;SDS011;63509;45.250;38.102;2023-01-29T00:54:36;26.65;;;14.25;;
74945;SDS011;63509;45.250;38.102;2023-01-29T00:57:02;27.88;;;13.63;;
74945;SDS011;63509;45.250;38.102;2023-01-29T00:59:29;34.00;;;15.02;;
74945;SDS011;63509;45.250;38.102;2023-01-29T01:01:55;27.23;;;14.68;;
74945;SDS011;63509;45.250;38.102;2023-01-29T01:04:39;34.95;;;15.65;;
74945;SDS011;63509;45.250;38.102;2023-01-29T01:07:05;34.65;;;14.40;;
74945;SDS011;63509;45.250;38.102;2023-01-29T01:09:34;31.48;;;15.07;;
74945;SDS011;63509;45.250;38.102;2023-01-29T01:12:19;33.13;;;15.18;;
74945;SDS011;63509;45.250;38.102;2023-01-29T01:14:45;30.80;;;13.32;;
74945;SDS011;63509;45.250;38.102;2023-01-29T01:17:12;30.38;;;13.10;;
74945;SDS011;63509;45.250;38.102;2023-01-29T01:19:39;42.20;;;15.88;;
74945;SDS011;63509;45.250;38.102;2023-01-29T01:22:05;30.30;;;15.60;;
74945;SDS011;63509;45.250;38.102;2023-01-29T01:24:31;26.98;;;14.98;;
74945;SDS011;63509;45.250;38.102;2023-01-29T01:26:58;31.98;;;15.65;;
74945;SDS011;63509;45.250;38.102;2023-01-29T01:29:24;29.63;;;13.98;;
74945;SDS011;63509;45.250;38.102;2023-01-29T01:31:51;31.60;;;14.43;;
74945;SDS011;63509;45.250;38.102;2023-01-29T01:34:18;30.25;;;14.88;;
74945;SDS011;63509;45.250;38.102;2023-01-29T01:36:45;32.42;;;15.38;;
74945;SDS011;63509;45.250;38.102;2023-01-29T01:39:10;36.20;;;17.35;;
74945;SDS011;63509;45.250;38.102;2023-01-29T01:41:37;29.80;;;14.55;;
74945;SDS011;63509;45.250;38.102;2023-01-29T01:44:03;34.58;;;15.55;;
74945;SDS011;63509;45.250;38.102;2023-01-29T01:46:32;30.10;;;15.35;;
74945;SDS011;63509;45.250;38.102;2023-01-29T01:51:32;30.17;;;15.20;;
74945;SDS011;63509;45.250;38.102;2023-01-29T01:54:05;28.10;;;14.00;;
74945;SDS011;63509;45.250;38.102;2023-01-29T01:56:36;27.95;;;13.95;;
74945;SDS011;63509;45.250;38.102;2023-01-29T01:59:08;32.50;;;14.75;;
74945;SDS011;63509;45.250;38.102;2023-01-29T02:01:37;32.25;;;14.45;;
74945;SDS011;63509;45.250;38.102;2023-01-29T02:04:11;30.98;;;13.85;;
74945;SDS011;63509;45.250;38.102;2023-01-29T02:06:59;34.83;;;15.18;;
74945;SDS011;63509;45.250;38.102;2023-01-29T02:12:18;28.48;;;14.88;;
74945;SDS011;63509;45.250;38.102;2023-01-29T02:14:45;32.40;;;14.18;;
74945;SDS011;63509;45.250;38.102;2023-01-29T02:17:13;32.17;;;14.85;;
74945;SDS011;63509;45.250;38.102;2023-01-29T02:30:49;27.48;;;14.52;;
74945;SDS011;63509;45.250;38.102;2023-01-29T02:41:14;28.90;;;14.13;;
74945;SDS011;63509;45.250;38.102;2023-01-29T02:43:58;30.60;;;15.38;;
74945;SDS011;63509;45.250;38.102;2023-01-29T02:46:34;37.35;;;14.88;;
74945;SDS011;63509;45.250;38.102;2023-01-29T02:49:08;29.23;;;15.77;;
74945;SDS011;63509;45.250;38.102;2023-01-29T02:54:46;33.50;;;14.82;;
74945;SDS011;63509;45.250;38.102;2023-01-29T02:57:20;32.40;;;15.43;;
74945;SDS011;63509;45.250;38.102;2023-01-29T02:59:54;30.23;;;15.93;;
74945;SDS011;63509;45.250;38.102;2023-01-29T03:02:27;26.45;;;12.95;;
74945;SDS011;63509;45.250;38.102;2023-01-29T03:05:02;36.13;;;14.38;;
74945;SDS011;63509;45.250;38.102;2023-01-29T03:07:34;30.83;;;15.25;;
74945;SDS011;63509;45.250;38.102;2023-01-29T03:10:26;25.63;;;12.85;;
74945;SDS011;63509;45.250;38.102;2023-01-29T03:13:02;36.38;;;14.80;;
74945;SDS011;63509;45.250;38.102;2023-01-29T03:15:51;29.15;;;14.32;;
74945;SDS011;63509;45.250;38.102;2023-01-29T03:18:39;34.05;;;14.50;;
74945;SDS011;63509;45.250;38.102;2023-01-29T03:21:18;29.23;;;13.27;;
74945;SDS011;63509;45.250;38.102;2023-01-29T03:24:10;31.15;;;15.70;;
74945;SDS011;63509;45.250;38.102;2023-01-29T03:26:57;31.75;;;13.27;;
74945;SDS011;63509;45.250;38.102;2023-01-29T03:29:45;33.60;;;17.35;;
74945;SDS011;63509;45.250;38.102;2023-01-29T03:32:45;37.67;;;14.05;;
74945;SDS011;63509;45.250;38.102;2023-01-29T03:35:13;26.83;;;14.63;;
74945;SDS011;63509;45.250;38.102;2023-01-29T03:37:47;32.78;;;12.90;;
74945;SDS011;63509;45.250;38.102;2023-01-29T03:40:14;31.92;;;14.13;;
74945;SDS011;63509;45.250;38.102;2023-01-29T03:42:43;29.52;;;16.67;;
74945;SDS011;63509;45.250;38.102;2023-01-29T03:45:26;32.20;;;14.13;;
74945;SDS011;63509;45.250;38.102;2023-01-29T03:48:15;33.83;;;13.55;;
74945;SDS011;63509;45.250;38.102;2023-01-29T03:51:05;26.48;;;11.80;;
74945;SDS011;63509;45.250;38.102;2023-01-29T04:02:12;31.65;;;14.50;;
74945;SDS011;63509;45.250;38.102;2023-01-29T04:04:44;27.77;;;13.43;;
74945;SDS011;63509;45.250;38.102;2023-01-29T04:07:18;33.10;;;13.35;;
74945;SDS011;63509;45.250;38.102;2023-01-29T04:09:57;30.73;;;13.95;;
74945;SDS011;63509;45.250;38.102;2023-01-29T04:12:34;29.17;;;14.50;;
74945;SDS011;63509;45.250;38.102;2023-01-29T04:15:05;28.55;;;15.30;;
74945;SDS011;63509;45.250;38.102;2023-01-29T04:17:39;36.63;;;14.68;;
74945;SDS011;63509;45.250;38.102;2023-01-29T04:20:16;24.30;;;12.82;;
74945;SDS011;63509;45.250;38.102;2023-01-29T04:22:44;28.45;;;13.00;;
74945;SDS011;63509;45.250;38.102;2023-01-29T04:25:18;35.03;;;13.82;;
74945;SDS011;63509;45.250;38.102;2023-01-29T04:27:56;28.10;;;12.63;;
74945;SDS011;63509;45.250;38.102;2023-01-29T04:33:28;32.38;;;14.15;;
74945;SDS011;63509;45.250;38.102;2023-01-29T04:41:34;32.92;;;15.02;;
74945;SDS011;63509;45.250;38.102;2023-01-29T04:44:15;33.33;;;14.90;;
74945;SDS011;63509;45.250;38.102;2023-01-29T04:57:18;27.02;;;13.27;;
74945;SDS011;63509;45.250;38.102;2023-01-29T04:59:52;29.65;;;14.13;;
74945;SDS011;63509;45.250;38.102;2023-01-29T05:02:24;27.65;;;12.93;;
74945;SDS011;63509;45.250;38.102;2023-01-29T05:04:53;37.00;;;16.10;;
74945;SDS011;63509;45.250;38.102;2023-01-29T05:07:20;28.73;;;13.95;;
74945;SDS011;63509;45.250;38.102;2023-01-29T05:09:48;31.02;;;15.30;;
74945;SDS011;63509;45.250;38.102;2023-01-29T05:12:16;28.15;;;14.45;;
74945;SDS011;63509;45.250;38.102;2023-01-29T05:14:43;30.45;;;15.20;;
74945;SDS011;63509;45.250;38.102;2023-01-29T05:17:13;24.63;;;12.00;;
74945;SDS011;63509;45.250;38.102;2023-01-29T05:19:42;26.73;;;11.93;;
74945;SDS011;63509;45.250;38.102;2023-01-29T05:22:10;36.78;;;15.35;;
74945;SDS011;63509;45.250;38.102;2023-01-29T05:24:38;26.70;;;13.63;;
74945;SDS011;63509;45.250;38.102;2023-01-29T05:27:04;26.33;;;12.63;;
74945;SDS011;63509;45.250;38.102;2023-01-29T05:29:49;44.33;;;21.67;;
74945;SDS011;63509;45.250;38.102;2023-01-29T05:32:15;45.05;;;19.30;;
74945;SDS011;63509;45.250;38.102;2023-01-29T05:34:41;37.65;;;19.58;;
74945;SDS011;63509;45.250;38.102;2023-01-29T05:37:08;38.22;;;18.35;;
74945;SDS011;63509;45.250;38.102;2023-01-29T05:39:34;32.72;;;17.60;;
74945;SDS011;63509;45.250;38.102;2023-01-29T05:42:00;38.22;;;19.42;;
74945;SDS011;63509;45.250;38.102;2023-01-29T05:44:27;71.03;;;38.10;;
74945;SDS011;63509;45.250;38.102;2023-01-29T05:46:53;64.38;;;34.50;;
74945;SDS011;63509;45.250;38.102;2023-01-29T05:49:19;74.10;;;39.55;;
74945;SDS011;63509;45.250;38.102;2023-01-29T05:51:46;54.10;;;28.80;;
74945;SDS011;63509;45.250;38.102;2023-01-29T05:54:13;38.67;;;19.38;;
74945;SDS011;63509;45.250;38.102;2023-01-29T05:56:39;37.97;;;18.80;;
74945;SDS011;63509;45.250;38.102;2023-01-29T05:59:05;39.03;;;16.75;;
74945;SDS011;63509;45.250;38.102;2023-01-29T06:01:31;34.05;;;15.20;;
74945;SDS011;63509;45.250;38.102;2023-01-29T06:03:57;29.70;;;14.32;;
74945;SDS011;63509;45.250;38.102;2023-01-29T06:06:23;31.35;;;14.35;;
74945;SDS011;63509;45.250;38.102;2023-01-29T06:08:49;32.40;;;14.77;;
74945;SDS011;63509;45.250;38.102;2023-01-29T06:11:15;30.65;;;15.50;;
74945;SDS011;63509;45.250;38.102;2023-01-29T06:13:43;51.33;;;21.35;;
74945;SDS011;63509;45.250;38.102;2023-01-29T06:16:10;49.35;;;21.35;;
74945;SDS011;63509;45.250;38.102;2023-01-29T06:18:37;39.83;;;18.05;;
74945;SDS011;63509;45.250;38.102;2023-01-29T06:21:04;33.40;;;14.90;;
74945;SDS011;63509;45.250;38.102;2023-01-29T06:23:31;29.15;;;15.15;;
74945;SDS011;63509;45.250;38.102;2023-01-29T06:26:01;29.38;;;14.35;;
74945;SDS011;63509;45.250;38.102;2023-01-29T06:28:29;35.88;;;15.77;;
74945;SDS011;63509;45.250;38.102;2023-01-29T06:30:56;37.25;;;16.25;;
74945;SDS011;63509;45.250;38.102;2023-01-29T06:33:24;51.90;;;20.60;;
74945;SDS011;63509;45.250;38.102;2023-01-29T06:35:57;58.08;;;22.08;;
74945;SDS011;63509;45.250;38.102;2023-01-29T06:38:24;55.83;;;18.63;;
74945;SDS011;63509;45.250;38.102;2023-01-29T06:40:53;42.15;;;18.38;;
74945;SDS011;63509;45.250;38.102;2023-01-29T06:43:20;57.67;;;21.48;;
74945;SDS011;63509;45.250;38.102;2023-01-29T06:45:48;39.20;;;17.50;;
74945;SDS011;63509;45.250;38.102;2023-01-29T06:48:21;38.42;;;16.92;;
74945;SDS011;63509;45.250;38.102;2023-01-29T06:50:49;38.60;;;17.52;;
74945;SDS011;63509;45.250;38.102;2023-01-29T06:53:16;35.40;;;15.30;;
74945;SDS011;63509;45.250;38.102;2023-01-29T06:55:42;47.92;;;16.20;;
74945;SDS011;63509;45.250;38.102;2023-01-29T06:58:15;35.70;;;16.45;;
74945;SDS011;63509;45.250;38.102;2023-01-29T07:00:41;31.25;;;15.68;;
74945;SDS011;63509;45.250;38.102;2023-01-29T07:03:08;36.25;;;16.23;;
74945;SDS011;63509;45.250;38.102;2023-01-29T07:05:35;36.75;;;15.80;;
74945;SDS011;63509;45.250;38.102;2023-01-29T07:08:02;33.28;;;15.68;;
74945;SDS011;63509;45.250;38.102;2023-01-29T07:10:28;34.60;;;14.18;;
74945;SDS011;63509;45.250;38.102;2023-01-29T07:12:55;31.35;;;14.88;;
74945;SDS011;63509;45.250;38.102;2023-01-29T07:15:23;36.10;;;13.50;;
74945;SDS011;63509;45.250;38.102;2023-01-29T07:17:58;31.60;;;14.18;;
74945;SDS011;63509;45.250;38.102;2023-01-29T07:20:27;34.42;;;13.55;;
74945;SDS011;63509;45.250;38.102;2023-01-29T07:22:56;36.75;;;14.77;;
74945;SDS011;63509;45.250;38.102;2023-01-29T07:25:23;28.63;;;13.77;;
74945;SDS011;63509;45.250;38.102;2023-01-29T07:27:49;29.33;;;13.35;;
74945;SDS011;63509;45.250;38.102;2023-01-29T07:30:15;29.38;;;13.23;;
74945;SDS011;63509;45.250;38.102;2023-01-29T07:32:42;31.90;;;14.35;;
74945;SDS011;63509;45.250;38.102;2023-01-29T07:35:08;28.13;;;14.55;;
74945;SDS011;63509;45.250;38.102;2023-01-29T07:37:34;26.63;;;13.50;;
74945;SDS011;63509;45.250;38.102;2023-01-29T07:40:00;31.42;;;13.35;;
74945;SDS011;63509;45.250;38.102;2023-01-29T07:42:27;25.73;;;14.95;;
74945;SDS011;63509;45.250;38.102;2023-01-29T07:44:52;31.52;;;14.32;;
74945;SDS011;63509;45.250;38.102;2023-01-29T07:47:18;26.98;;;14.50;;
74945;SDS011;63509;45.250;38.102;2023-01-29T07:49:44;31.85;;;14.75;;
74945;SDS011;63509;45.250;38.102;2023-01-29T07:52:10;29.35;;;13.52;;
74945;SDS011;63509;45.250;38.102;2023-01-29T07:54:36;42.13;;;16.63;;
74945;SDS011;63509;45.250;38.102;2023-01-29T07:57:02;28.83;;;14.32;;
74945;SDS011;63509;45.250;38.102;2023-01-29T07:59:28;32.05;;;14.88;;
74945;SDS011;63509;45.250;38.102;2023-01-29T08:01:55;31.77;;;15.88;;
74945;SDS011;63509;45.250;38.102;2023-01-29T08:04:21;35.95;;;17.23;;
74945;SDS011;63509;45.250;38.102;2023-01-29T08:06:47;36.97;;;18.35;;
74945;SDS011;63509;45.250;38.102;2023-01-29T08:09:13;32.60;;;17.38;;
74945;SDS011;63509;45.250;38.102;2023-01-29T08:11:39;42.88;;;22.27;;
74945;SDS011;63509;45.250;38.102;2023-01-29T08:14:05;31.48;;;17.92;;
74945;SDS011;63509;45.250;38.102;2023-01-29T08:16:34;36.78;;;19.33;;
74945;SDS011;63509;45.250;38.102;2023-01-29T08:19:03;38.13;;;23.23;;
74945;SDS011;63509;45.250;38.102;2023-01-29T08:21:29;38.78;;;20.20;;
74945;SDS011;63509;45.250;38.102;2023-01-29T08:23:55;33.90;;;18.80;;
74945;SDS011;63509;45.250;38.102;2023-01-29T08:26:21;43.08;;;18.65;;
74945;SDS011;63509;45.250;38.102;2023-01-29T08:28:47;43.00;;;17.30;;
74945;SDS011;63509;45.250;38.102;2023-01-29T08:45:36;37.15;;;18.02;;
74945;SDS011;63509;45.250;38.102;2023-01-29T08:48:06;37.13;;;17.35;;
74945;SDS011;63509;45.250;38.102;2023-01-29T08:50:33;35.70;;;17.65;;
74945;SDS011;63509;45.250;38.102;2023-01-29T08:53:02;27.90;;;15.80;;
74945;SDS011;63509;45.250;38.102;2023-01-29T08:55:36;34.35;;;15.82;;
74945;SDS011;63509;45.250;38.102;2023-01-29T08:58:04;39.28;;;17.67;;
74945;SDS011;63509;45.250;38.102;2023-01-29T09:00:35;34.08;;;17.55;;
74945;SDS011;63509;45.250;38.102;2023-01-29T09:03:01;34.45;;;19.02;;
74945;SDS011;63509;45.250;38.102;2023-01-29T09:05:28;40.13;;;18.65;;
74945;SDS011;63509;45.250;38.102;2023-01-29T09:07:57;45.75;;;22.77;;
74945;SDS011;63509;45.250;38.102;2023-01-29T09:10:24;77.57;;;27.90;;
74945;SDS011;63509;45.250;38.102;2023-01-29T09:12:50;77.38;;;33.72;;
74945;SDS011;63509;45.250;38.102;2023-01-29T09:15:16;74.38;;;42.88;;
74945;SDS011;63509;45.250;38.102;2023-01-29T09:17:42;92.15;;;53.20;;
74945;SDS011;63509;45.250;38.102;2023-01-29T09:20:08;126.95;;;65.20;;
74945;SDS011;63509;45.250;38.102;2023-01-29T09:22:35;136.45;;;63.58;;
74945;SDS011;63509;45.250;38.102;2023-01-29T09:25:01;131.68;;;61.47;;
74945;SDS011;63509;45.250;38.102;2023-01-29T09:27:27;74.45;;;42.08;;
74945;SDS011;63509;45.250;38.102;2023-01-29T09:32:21;77.63;;;44.40;;
74945;SDS011;63509;45.250;38.102;2023-01-29T09:34:47;66.28;;;34.72;;
74945;SDS011;63509;45.250;38.102;2023-01-29T09:37:13;49.28;;;26.42;;
74945;SDS011;63509;45.250;38.102;2023-01-29T09:39:42;60.00;;;25.83;;
74945;SDS011;63509;45.250;38.102;2023-01-29T09:42:11;43.17;;;21.40;;
74945;SDS011;63509;45.250;38.102;2023-01-29T09:47:31;37.67;;;21.65;;
74945;SDS011;63509;45.250;38.102;2023-01-29T09:50:00;39.38;;;23.35;;
74945;SDS011;63509;45.250;38.102;2023-01-29T09:52:35;63.22;;;34.65;;
74945;SDS011;63509;45.250;38.102;2023-01-29T09:57:56;75.78;;;39.65;;
74945;SDS011;63509;45.250;38.102;2023-01-29T10:02:56;54.33;;;26.15;;
74945;SDS011;63509;45.250;38.102;2023-01-29T10:21:10;22.60;;;10.05;;
74945;SDS011;63509;45.250;38.102;2023-01-29T10:24:00;34.83;;;11.18;;
74945;SDS011;63509;45.250;38.102;2023-01-29T10:26:43;21.90;;;10.05;;
74945;SDS011;63509;45.250;38.102;2023-01-29T10:29:09;24.10;;;10.27;;
74945;SDS011;63509;45.250;38.102;2023-01-29T10:31:42;25.38;;;11.02;;
74945;SDS011;63509;45.250;38.102;2023-01-29T10:36:40;28.80;;;10.50;;
74945;SDS011;63509;45.250;38.102;2023-01-29T10:39:15;40.08;;;13.65;;
74945;SDS011;63509;45.250;38.102;2023-01-29T10:47:22;37.20;;;11.80;;
74945;SDS011;63509;45.250;38.102;2023-01-29T10:58:49;19.55;;;8.00;;
74945;SDS011;63509;45.250;38.102;2023-01-29T11:01:19;20.27;;;8.93;;
74945;SDS011;63509;45.250;38.102;2023-01-29T11:03:53;19.52;;;8.73;;
74945;SDS011;63509;45.250;38.102;2023-01-29T11:06:35;14.45;;;6.45;;
74945;SDS011;63509;45.250;38.102;2023-01-29T11:09:07;16.17;;;5.88;;
74945;SDS011;63509;45.250;38.102;2023-01-29T11:11:58;10.32;;;6.00;;
74945;SDS011;63509;45.250;38.102;2023-01-29T11:16:59;12.90;;;6.20;;
74945;SDS011;63509;45.250;38.102;2023-01-29T11:19:37;13.63;;;5.85;;
74945;SDS011;63509;45.250;38.102;2023-01-29T11:22:10;14.57;;;6.95;;
74945;SDS011;63509;45.250;38.102;2023-01-29T11:24:39;13.10;;;6.78;;
74945;SDS011;63509;45.250;38.102;2023-01-29T11:29:50;15.80;;;6.72;;
74945;SDS011;63509;45.250;38.102;2023-01-29T11:35:04;12.55;;;6.50;;
74945;SDS011;63509;45.250;38.102;2023-01-29T11:37:37;10.25;;;6.18;;
74945;SDS011;63509;45.250;38.102;2023-01-29T11:42:43;14.10;;;7.22;;
74945;SDS011;63509;45.250;38.102;2023-01-29T11:47:54;19.27;;;7.80;;
74945;SDS011;63509;45.250;38.102;2023-01-29T11:50:26;16.17;;;8.15;;
74945;SDS011;63509;45.250;38.102;2023-01-29T11:52:54;17.52;;;7.88;;
74945;SDS011;63509;45.250;38.102;2023-01-29T11:57:51;16.10;;;8.52;;
74945;SDS011;63509;45.250;38.102;2023-01-29T12:00:32;37.50;;;15.73;;
74945;SDS011;63509;45.250;38.102;2023-01-29T12:03:06;46.28;;;19.27;;
74945;SDS011;63509;45.250;38.102;2023-01-29T12:05:55;568.22;;;200.95;;
74945;SDS011;63509;45.250;38.102;2023-01-29T12:08:23;531.50;;;196.07;;
74945;SDS011;63509;45.250;38.102;2023-01-29T12:10:49;255.23;;;85.22;;
74945;SDS011;63509;45.250;38.102;2023-01-29T12:13:33;145.00;;;45.50;;
74945;SDS011;63509;45.250;38.102;2023-01-29T12:16:06;173.65;;;68.07;;
74945;SDS011;63509;45.250;38.102;2023-01-29T12:18:38;113.65;;;43.97;;
74945;SDS011;63509;45.250;38.102;2023-01-29T12:29:50;20.27;;;10.80;;
74945;SDS011;63509;45.250;38.102;2023-01-29T12:40:20;17.45;;;7.30;;
74945;SDS011;63509;45.250;38.102;2023-01-29T12:42:52;14.57;;;6.88;;
74945;SDS011;63509;45.250;38.102;2023-01-29T12:45:24;13.75;;;6.72;;
74945;SDS011;63509;45.250;38.102;2023-01-29T12:48:04;14.52;;;6.95;;
74945;SDS011;63509;45.250;38.102;2023-01-29T12:50:33;13.75;;;7.55;;
74945;SDS011;63509;45.250;38.102;2023-01-29T12:53:04;21.15;;;9.73;;
74945;SDS011;63509;45.250;38.102;2023-01-29T12:55:42;16.98;;;9.20;;
74945;SDS011;63509;45.250;38.102;2023-01-29T12:58:22;18.55;;;8.85;;
74945;SDS011;63509;45.250;38.102;2023-01-29T13:00:50;20.35;;;9.52;;
74945;SDS011;63509;45.250;38.102;2023-01-29T13:03:20;20.00;;;9.98;;
74945;SDS011;63509;45.250;38.102;2023-01-29T13:06:12;18.58;;;8.50;;
74945;SDS011;63509;45.250;38.102;2023-01-29T13:08:50;19.95;;;8.82;;
74945;SDS011;63509;45.250;38.102;2023-01-29T13:11:24;20.20;;;8.48;;
74945;SDS011;63509;45.250;38.102;2023-01-29T13:14:05;21.45;;;9.00;;
74945;SDS011;63509;45.250;38.102;2023-01-29T13:16:45;20.20;;;7.95;;
74945;SDS011;63509;45.250;38.102;2023-01-29T13:19:21;18.75;;;7.72;;
74945;SDS011;63509;45.250;38.102;2023-01-29T13:21:53;14.48;;;6.88;;
74945;SDS011;63509;45.250;38.102;2023-01-29T13:24:22;12.68;;;6.60;;
74945;SDS011;63509;45.250;38.102;2023-01-29T13:26:51;9.93;;;5.90;;
74945;SDS011;63509;45.250;38.102;2023-01-29T13:29:28;14.43;;;7.57;;
74945;SDS011;63509;45.250;38.102;2023-01-29T13:31:55;15.85;;;6.93;;
74945;SDS011;63509;45.250;38.102;2023-01-29T13:34:25;15.48;;;6.70;;
74945;SDS011;63509;45.250;38.102;2023-01-29T13:36:56;16.92;;;7.28;;
74945;SDS011;63509;45.250;38.102;2023-01-29T13:39:29;16.13;;;6.78;;
74945;SDS011;63509;45.250;38.102;2023-01-29T13:44:49;16.58;;;8.45;;
74945;SDS011;63509;45.250;38.102;2023-01-29T13:47:28;20.05;;;8.25;;
74945;SDS011;63509;45.250;38.102;2023-01-29T13:50:08;16.85;;;8.40;;
74945;SDS011;63509;45.250;38.102;2023-01-29T13:52:44;21.92;;;10.10;;
74945;SDS011;63509;45.250;38.102;2023-01-29T14:10:34;17.05;;;9.57;;
74945;SDS011;63509;45.250;38.102;2023-01-29T14:15:30;19.95;;;9.32;;
74945;SDS011;63509;45.250;38.102;2023-01-29T14:20:39;21.55;;;9.90;;
74945;SDS011;63509;45.250;38.102;2023-01-29T14:23:55;18.70;;;8.15;;
74945;SDS011;63509;45.250;38.102;2023-01-29T14:26:23;15.93;;;8.13;;
74945;SDS011;63509;45.250;38.102;2023-01-29T14:29:06;16.33;;;9.38;;
74945;SDS011;63509;45.250;38.102;2023-01-29T14:31:43;17.08;;;9.15;;
74945;SDS011;63509;45.250;38.102;2023-01-29T14:34:14;20.25;;;9.82;;
74945;SDS011;63509;45.250;38.102;2023-01-29T14:36:47;17.38;;;8.85;;
74945;SDS011;63509;45.250;38.102;2023-01-29T14:39:36;16.50;;;7.53;;
74945;SDS011;63509;45.250;38.102;2023-01-29T14:42:20;19.30;;;8.43;;
74945;SDS011;63509;45.250;38.102;2023-01-29T14:44:58;21.08;;;8.10;;
74945;SDS011;63509;45.250;38.102;2023-01-29T14:49:58;17.60;;;8.07;;
74945;SDS011;63509;45.250;38.102;2023-01-29T14:52:47;14.52;;;7.50;;
74945;SDS011;63509;45.250;38.102;2023-01-29T14:57:56;24.77;;;10.70;;
74945;SDS011;63509;45.250;38.102;2023-01-29T15:00:27;20.33;;;10.30;;
74945;SDS011;63509;45.250;38.102;2023-01-29T15:03:11;20.25;;;8.98;;
74945;SDS011;63509;45.250;38.102;2023-01-29T15:05:41;21.50;;;9.18;;
74945;SDS011;63509;45.250;38.102;2023-01-29T15:10:52;17.52;;;7.35;;
74945;SDS011;63509;45.250;38.102;2023-01-29T15:13:44;16.92;;;8.32;;
74945;SDS011;63509;45.250;38.102;2023-01-29T15:16:24;18.58;;;8.68;;
74945;SDS011;63509;45.250;38.102;2023-01-29T15:18:56;18.63;;;8.48;;
74945;SDS011;63509;45.250;38.102;2023-01-29T15:21:37;19.98;;;8.77;;
74945;SDS011;63509;45.250;38.102;2023-01-29T15:24:04;18.92;;;8.77;;
74945;SDS011;63509;45.250;38.102;2023-01-29T15:26:31;21.90;;;9.55;;
74945;SDS011;63509;45.250;38.102;2023-01-29T15:29:00;21.30;;;9.82;;
74945;SDS011;63509;45.250;38.102;2023-01-29T15:31:27;19.98;;;10.65;;
74945;SDS011;63509;45.250;38.102;2023-01-29T15:33:54;20.23;;;10.25;;
74945;SDS011;63509;45.250;38.102;2023-01-29T15:36:22;23.83;;;11.55;;
74945;SDS011;63509;45.250;38.102;2023-01-29T15:41:36;23.67;;;10.25;;
74945;SDS011;63509;45.250;38.102;2023-01-29T15:44:02;19.13;;;8.68;;
74945;SDS011;63509;45.250;38.102;2023-01-29T15:46:35;17.27;;;8.98;;
74945;SDS011;63509;45.250;38.102;2023-01-29T15:49:08;16.55;;;8.70;;
74945;SDS011;63509;45.250;38.102;2023-01-29T15:51:39;18.77;;;9.45;;
74945;SDS011;63509;45.250;38.102;2023-01-29T15:54:08;22.20;;;9.70;;
74945;SDS011;63509;45.250;38.102;2023-01-29T15:56:48;18.27;;;9.85;;
74945;SDS011;63509;45.250;38.102;2023-01-29T15:59:18;21.42;;;9.48;;
74945;SDS011;63509;45.250;38.102;2023-01-29T16:01:49;17.40;;;10.02;;
74945;SDS011;63509;45.250;38.102;2023-01-29T16:04:21;22.15;;;9.68;;
74945;SDS011;63509;45.250;38.102;2023-01-29T16:06:53;20.13;;;10.85;;
74945;SDS011;63509;45.250;38.102;2023-01-29T16:09:21;18.65;;;9.93;;
74945;SDS011;63509;45.250;38.102;2023-01-29T16:11:49;16.17;;;8.30;;
74945;SDS011;63509;45.250;38.102;2023-01-29T16:14:19;13.38;;;7.25;;
74945;SDS011;63509;45.250;38.102;2023-01-29T16:16:47;14.73;;;8.15;;
74945;SDS011;63509;45.250;38.102;2023-01-29T16:21:52;17.70;;;7.63;;
74945;SDS011;63509;45.250;38.102;2023-01-29T16:24:24;13.57;;;6.85;;
74945;SDS011;63509;45.250;38.102;2023-01-29T16:26:55;18.45;;;7.40;;
74945;SDS011;63509;45.250;38.102;2023-01-29T16:29:37;17.65;;;8.02;;
74945;SDS011;63509;45.250;38.102;2023-01-29T16:32:04;13.80;;;7.60;;
74945;SDS011;63509;45.250;38.102;2023-01-29T16:34:33;14.30;;;7.50;;
74945;SDS011;63509;45.250;38.102;2023-01-29T16:37:00;14.50;;;8.18;;
74945;SDS011;63509;45.250;38.102;2023-01-29T16:39:33;18.33;;;8.13;;
74945;SDS011;63509;45.250;38.102;2023-01-29T16:44:37;18.33;;;8.75;;
74945;SDS011;63509;45.250;38.102;2023-01-29T16:47:11;18.60;;;8.77;;
74945;SDS011;63509;45.250;38.102;2023-01-29T16:55:17;21.05;;;11.55;;
74945;SDS011;63509;45.250;38.102;2023-01-29T16:57:50;21.45;;;11.35;;
74945;SDS011;63509;45.250;38.102;2023-01-29T17:00:20;20.85;;;10.98;;
74945;SDS011;63509;45.250;38.102;2023-01-29T17:02:49;25.92;;;11.95;;
74945;SDS011;63509;45.250;38.102;2023-01-29T17:05:30;23.25;;;12.00;;
74945;SDS011;63509;45.250;38.102;2023-01-29T17:07:59;24.38;;;11.02;;
74945;SDS011;63509;45.250;38.102;2023-01-29T17:10:28;29.88;;;13.00;;
74945;SDS011;63509;45.250;38.102;2023-01-29T17:13:07;22.73;;;11.93;;
74945;SDS011;63509;45.250;38.102;2023-01-29T17:15:42;25.15;;;12.18;;
74945;SDS011;63509;45.250;38.102;2023-01-29T17:20:43;22.65;;;11.85;;
74945;SDS011;63509;45.250;38.102;2023-01-29T17:23:09;23.67;;;12.23;;
74945;SDS011;63509;45.250;38.102;2023-01-29T17:25:37;27.20;;;13.02;;
74945;SDS011;63509;45.250;38.102;2023-01-29T17:28:03;31.25;;;14.38;;
74945;SDS011;63509;45.250;38.102;2023-01-29T17:30:30;30.13;;;14.43;;
74945;SDS011;63509;45.250;38.102;2023-01-29T17:33:12;28.95;;;14.02;;
74945;SDS011;63509;45.250;38.102;2023-01-29T17:35:39;26.02;;;12.85;;
74945;SDS011;63509;45.250;38.102;2023-01-29T17:38:11;30.15;;;13.52;;
74945;SDS011;63509;45.250;38.102;2023-01-29T17:40:43;30.80;;;13.70;;
74945;SDS011;63509;45.250;38.102;2023-01-29T17:43:10;28.88;;;15.00;;
74945;SDS011;63509;45.250;38.102;2023-01-29T17:45:37;27.25;;;13.63;;
74945;SDS011;63509;45.250;38.102;2023-01-29T17:48:04;27.13;;;14.05;;